createdAt,value
2022-11-24T00:00:28.674Z,0.4
2022-11-24T00:05:34.780Z,0.3
2022-11-24T00:10:39.933Z,0.5
2022-11-24T00:15:46.049Z,0.8
2022-11-24T00:20:52.164Z,0.8
2022-11-24T00:25:58.283Z,0.6
2022-11-24T00:31:03.436Z,0.8
2022-11-24T00:36:09.563Z,0.6
2022-11-24T00:41:15.680Z,0.6
2022-11-24T00:46:21.779Z,0.7
2022-11-24T00:51:27.910Z,0.7
2022-11-24T00:56:34.049Z,0.4
2022-11-24T01:01:40.150Z,0.6
2022-11-24T01:06:46.285Z,0.6
2022-11-24T01:11:52.382Z,0.5
2022-11-24T01:16:58.499Z,0.4
2022-11-24T01:22:04.620Z,0.4
2022-11-24T01:27:10.751Z,0.6
2022-11-24T01:32:16.858Z,0.7
2022-11-24T01:37:22.058Z,0.5
2022-11-24T01:42:28.117Z,0.4
2022-11-24T01:47:34.242Z,0.4
2022-11-24T01:52:40.377Z,0.4
2022-11-24T01:57:46.480Z,0.3
2022-11-24T02:02:52.601Z,0.6
2022-11-24T02:07:58.719Z,0.5
2022-11-24T02:13:04.869Z,0.5
2022-11-24T02:18:10.977Z,0.3
2022-11-24T02:23:17.095Z,0.4
2022-11-24T02:28:23.216Z,0.4
2022-11-24T02:33:29.338Z,0.4
2022-11-24T02:38:35.463Z,0.5
2022-11-24T02:43:40.587Z,0.5
2022-11-24T02:48:46.709Z,0.4
2022-11-24T02:53:52.818Z,0.5
2022-11-24T02:58:58.936Z,0.4
2022-11-24T03:04:05.074Z,0.6
2022-11-24T03:09:11.195Z,0.5
2022-11-24T03:14:17.305Z,0.6
2022-11-24T03:19:23.432Z,0.4
2022-11-24T03:24:29.540Z,0.6
2022-11-24T03:29:35.667Z,0.7
2022-11-24T03:34:41.798Z,0.6
2022-11-24T03:39:47.914Z,0.6
2022-11-24T03:44:54.021Z,0.5
2022-11-24T03:49:59.183Z,0.3
2022-11-24T03:55:05.276Z,0.4
2022-11-24T04:00:11.404Z,0.5
2022-11-24T04:05:17.527Z,0.4
2022-11-24T04:10:23.662Z,0.7
2022-11-24T04:15:29.768Z,0.8
2022-11-24T04:20:35.900Z,0.9
2022-11-24T04:25:42.019Z,1
2022-11-24T04:30:48.140Z,0.9
2022-11-24T04:35:54.248Z,1
2022-11-24T04:41:00.385Z,1
2022-11-24T04:46:06.509Z,1.2
2022-11-24T04:51:12.608Z,1.3
2022-11-24T05:01:23.932Z,1.4
2022-11-24T05:06:29.995Z,1.3
2022-11-24T05:11:36.119Z,1.4
2022-11-24T05:16:42.240Z,1.3
2022-11-24T05:21:48.366Z,1.4
2022-11-24T05:26:54.479Z,1.5
2022-11-24T05:32:00.597Z,1.5
2022-11-24T05:37:06.721Z,1.5
2022-11-24T05:42:12.848Z,1.5
2022-11-24T05:47:18.969Z,1.4
2022-11-24T05:52:25.075Z,1.4
2022-11-24T05:57:31.199Z,1.4
2022-11-24T06:02:36.361Z,1.4
2022-11-24T06:07:42.463Z,1.5
2022-11-24T06:12:48.641Z,1.4
2022-11-24T06:17:54.697Z,1.3
2022-11-24T06:23:00.829Z,1.3
2022-11-24T06:28:06.940Z,1.3
2022-11-24T06:33:13.059Z,1.3
2022-11-24T06:38:19.180Z,1.3
2022-11-24T06:43:25.297Z,1.3
2022-11-24T06:48:31.422Z,1.3
2022-11-24T06:53:37.536Z,1.3
2022-11-24T06:58:43.716Z,1.3
2022-11-24T07:03:49.798Z,1.3
2022-11-24T07:08:54.922Z,1.6
2022-11-24T07:14:01.084Z,1.7
2022-11-24T07:19:07.163Z,1.9
2022-11-24T07:24:13.305Z,2
2022-11-24T07:29:19.448Z,2
2022-11-24T07:34:25.531Z,2
2022-11-24T07:39:31.624Z,2.2
2022-11-24T07:44:37.746Z,2.2
2022-11-24T07:54:49.980Z,2.5
2022-11-24T07:59:56.125Z,2.5
2022-11-24T08:05:02.260Z,2.5
2022-11-24T08:10:08.393Z,2.5
2022-11-24T08:15:13.537Z,2.5
2022-11-24T08:20:19.647Z,2.9
2022-11-24T08:25:25.722Z,2.9
2022-11-24T08:30:31.833Z,3
2022-11-24T08:35:37.942Z,3
2022-11-24T08:40:44.080Z,3.2
2022-11-24T08:45:50.186Z,3.3
2022-11-24T08:50:56.292Z,3.3
2022-11-24T08:56:02.411Z,3.4
2022-11-24T09:01:08.586Z,3.5
2022-11-24T09:06:14.631Z,3.6
2022-11-24T09:11:20.775Z,3.7
2022-11-24T09:16:26.874Z,3.8
2022-11-24T09:21:32.147Z,3.9
2022-11-24T09:26:38.260Z,4
2022-11-24T09:31:44.354Z,4.1
2022-11-24T09:36:50.360Z,4.1
2022-11-24T09:41:56.554Z,4
2022-11-24T09:47:02.578Z,4
2022-11-24T09:52:08.682Z,4.1
2022-11-24T09:57:14.843Z,4.2
2022-11-24T10:02:20.912Z,4.2
2022-11-24T10:07:27.013Z,4.4
2022-11-24T10:12:33.197Z,4.5
2022-11-24T10:17:39.341Z,4.5
2022-11-24T10:22:45.405Z,4.4
2022-11-24T10:27:50.476Z,4.4
2022-11-24T10:32:56.610Z,4.4
2022-11-24T10:38:02.701Z,4.6
2022-11-24T10:43:08.814Z,4.6
2022-11-24T10:48:15.001Z,4.7
2022-11-24T10:53:21.047Z,4.8
2022-11-24T10:58:27.175Z,4.8
2022-11-24T11:03:33.428Z,4.7
2022-11-24T11:08:39.455Z,4.9
2022-11-24T11:13:45.564Z,5.2
2022-11-24T11:18:51.721Z,5.5
2022-11-24T11:23:57.759Z,5.7
2022-11-24T11:29:03.883Z,5.8
2022-11-24T11:34:09.025Z,5.9
2022-11-24T11:39:15.121Z,6
2022-11-24T11:44:21.233Z,6
2022-11-24T11:49:27.353Z,6
2022-11-24T11:54:33.464Z,6.2
2022-11-24T11:59:39.724Z,6.3
2022-11-24T12:04:45.822Z,6.4
2022-11-24T12:09:51.805Z,6.4
2022-11-24T12:14:58.058Z,6.5
2022-11-24T12:20:04.024Z,6.4
2022-11-24T12:25:10.142Z,6.4
2022-11-24T12:30:16.355Z,6.3
2022-11-24T12:35:22.405Z,6.4
2022-11-24T12:40:27.634Z,6.3
2022-11-24T12:45:33.712Z,6.3
2022-11-24T12:50:39.790Z,6.3
2022-11-24T13:00:52.147Z,6.4
2022-11-24T13:05:58.085Z,6.4
2022-11-24T13:11:04.286Z,6.4
2022-11-24T13:16:10.496Z,6.3
2022-11-24T13:21:16.486Z,6.5
2022-11-24T13:26:22.698Z,6.6
2022-11-24T13:31:28.661Z,6.6
2022-11-24T13:36:35.042Z,6.6
2022-11-24T13:41:41.086Z,6.6
2022-11-24T13:46:46.194Z,6.7
2022-11-24T13:51:52.289Z,6.6
2022-11-24T13:56:58.416Z,6.4
2022-11-24T14:02:04.406Z,6.3
2022-11-24T14:07:10.701Z,6.4
2022-11-24T14:12:16.825Z,6.2
2022-11-24T14:17:22.907Z,6.1
2022-11-24T14:22:28.821Z,5.9
2022-11-24T14:27:35.093Z,5.8
2022-11-24T14:32:41.213Z,5.8
2022-11-24T14:37:47.204Z,5.8
2022-11-24T14:42:53.260Z,5.7
2022-11-24T14:47:59.567Z,5.5
2022-11-24T14:53:04.679Z,5.4
2022-11-24T14:58:10.784Z,5.3
2022-11-24T15:03:16.857Z,5.3
2022-11-24T15:08:23.095Z,5.2
2022-11-24T15:13:29.165Z,5.1
2022-11-24T15:18:35.165Z,5
2022-11-24T15:23:41.326Z,5
2022-11-24T15:28:47.296Z,5.2
2022-11-24T15:33:53.436Z,5.1
2022-11-24T15:38:59.773Z,4.9
2022-11-24T15:44:05.779Z,4.8
2022-11-24T15:49:11.926Z,4.6
2022-11-24T15:54:18.108Z,4.2
2022-11-24T15:59:23.203Z,4.2
2022-11-24T16:04:29.300Z,4.3
2022-11-24T16:09:35.388Z,4.6
2022-11-24T16:14:41.522Z,4.7
2022-11-24T16:19:47.493Z,4.8
2022-11-24T16:24:53.723Z,4.9
2022-11-24T16:29:59.672Z,4.9
2022-11-24T16:35:05.872Z,5.1
2022-11-24T16:40:11.900Z,5
2022-11-24T16:45:18.108Z,4.9
2022-11-24T16:50:24.161Z,5
2022-11-24T16:55:30.459Z,4.9
2022-11-24T17:00:36.457Z,5
2022-11-24T17:05:41.489Z,4.8
2022-11-24T17:10:47.667Z,4.7
2022-11-24T17:15:53.767Z,4.8
2022-11-24T17:20:59.925Z,4.8
2022-11-24T17:26:06.042Z,4.8
2022-11-24T17:31:12.135Z,4.8
2022-11-24T17:36:17.208Z,4.8
2022-11-24T17:41:23.305Z,4.8
2022-11-24T17:46:29.465Z,4.8
2022-11-24T17:51:35.616Z,4.8
2022-11-24T17:56:41.649Z,4.9
2022-11-24T18:01:47.895Z,4.8
2022-11-24T18:06:53.978Z,4.8
2022-11-24T18:12:00.103Z,4.8
2022-11-24T18:17:06.182Z,4.9
2022-11-24T18:22:12.352Z,5
2022-11-24T18:27:18.427Z,5
2022-11-24T18:32:24.422Z,5
2022-11-24T18:37:30.533Z,4.9
2022-11-24T18:42:35.768Z,4.9
2022-11-24T18:47:41.791Z,4.7
2022-11-24T18:52:47.977Z,4.6
2022-11-24T18:57:54.019Z,4.8
2022-11-24T19:03:00.162Z,5.1
2022-11-24T19:08:06.361Z,4.9
2022-11-24T19:13:12.536Z,4.9
2022-11-24T19:18:18.448Z,4.9
2022-11-24T19:23:24.681Z,4.6
2022-11-24T19:28:30.684Z,4.5
2022-11-24T19:33:36.806Z,4.5
2022-11-24T19:38:42.928Z,4.6
2022-11-24T19:43:49.090Z,4.5
2022-11-24T19:48:54.233Z,4.6
2022-11-24T19:54:00.266Z,4.8
2022-11-24T19:59:06.458Z,4.8
2022-11-24T20:04:12.511Z,4.6
2022-11-24T20:09:18.707Z,4.7
2022-11-24T20:14:24.775Z,4.8
2022-11-24T20:19:30.942Z,4.6
2022-11-24T20:24:37.019Z,4.7
2022-11-24T20:29:43.070Z,5.1
2022-11-24T20:34:49.257Z,5
2022-11-24T20:39:55.296Z,5
2022-11-24T20:45:01.526Z,5
2022-11-24T20:50:07.586Z,4.8
2022-11-24T20:55:12.643Z,4.8
2022-11-24T21:00:18.734Z,4.7
2022-11-24T21:05:24.849Z,4.6
2022-11-24T21:10:30.976Z,4.6
2022-11-24T21:15:37.128Z,4.5
2022-11-24T21:20:43.213Z,4.5
2022-11-24T21:25:49.335Z,4.6
2022-11-24T21:30:55.433Z,4.6
2022-11-24T21:36:01.545Z,4.5
2022-11-24T21:41:07.667Z,4.4
2022-11-24T21:46:13.770Z,4.4
2022-11-24T21:51:19.885Z,4.4
2022-11-24T21:56:26.072Z,4.5
2022-11-24T22:01:31.132Z,4.4
2022-11-24T22:06:37.252Z,4.4
2022-11-24T22:11:43.478Z,4.4
2022-11-24T22:16:49.515Z,4.9
2022-11-24T22:21:55.585Z,5
2022-11-24T22:27:01.701Z,4.9
2022-11-24T22:32:07.830Z,4.5
2022-11-24T22:37:13.920Z,4.4
2022-11-24T22:42:20.052Z,4.2
2022-11-24T22:47:26.151Z,3.9
2022-11-24T22:52:32.290Z,3.5
2022-11-24T22:57:38.369Z,3.3
2022-11-24T23:02:44.502Z,3.1
2022-11-24T23:07:49.660Z,2.9
2022-11-24T23:12:55.741Z,2.6
2022-11-24T23:18:01.865Z,2.7
2022-11-24T23:23:07.972Z,2.4
2022-11-24T23:28:14.101Z,2.5
2022-11-24T23:33:20.218Z,2.3
2022-11-24T23:38:26.344Z,2.4
2022-11-24T23:43:32.464Z,2.8
2022-11-24T23:48:38.572Z,3.1
2022-11-24T23:53:44.687Z,3
2022-11-24T23:58:50.822Z,3
